createdAt,value
2019-05-01T00:01:04.961Z,7.77
2019-05-01T00:03:57.301Z,7.33
2019-05-01T00:06:29.058Z,7.77
2019-05-01T00:08:55.815Z,7.73
2019-05-01T00:11:22.551Z,8.30
2019-05-01T00:13:49.187Z,8.43
2019-05-01T00:16:15.942Z,8.10
2019-05-01T00:18:42.608Z,8.93
2019-05-01T00:21:09.230Z,8.17
2019-05-01T00:23:36.338Z,8.33
2019-05-01T00:26:03.080Z,9.27
2019-05-01T00:31:09.564Z,8.40
2019-05-01T00:33:36.321Z,9.43
2019-05-01T00:36:03.348Z,9.37
2019-05-01T00:38:30.290Z,8.93
2019-05-01T00:40:56.922Z,10.40
2019-05-01T00:43:24.092Z,9.30
2019-05-01T00:45:50.715Z,8.90
2019-05-01T00:48:17.665Z,9.00
2019-05-01T00:50:44.459Z,10.13
2019-05-01T00:53:11.190Z,10.77
2019-05-01T00:55:57.648Z,10.17
2019-05-01T00:59:01.934Z,9.40
2019-05-01T01:01:50.876Z,8.87
2019-05-01T01:04:19.151Z,9.13
2019-05-01T01:06:46.178Z,8.80
2019-05-01T01:09:13.510Z,9.20
2019-05-01T01:11:40.182Z,8.97
2019-05-01T01:14:07.582Z,10.03
2019-05-01T01:16:34.570Z,9.63
2019-05-01T01:19:01.172Z,9.70
2019-05-01T01:21:27.896Z,9.37
2019-05-01T01:23:54.599Z,9.53
2019-05-01T01:26:21.322Z,10.10
2019-05-01T01:28:48.165Z,10.73
2019-05-01T01:31:15.167Z,9.50
2019-05-01T01:33:42.154Z,11.27
2019-05-01T01:36:08.808Z,10.63
2019-05-01T01:38:35.568Z,10.53
2019-05-01T01:41:02.289Z,11.13
2019-05-01T01:44:00.693Z,10.03
2019-05-01T01:46:29.097Z,10.60
2019-05-01T01:48:55.727Z,10.10
2019-05-01T01:51:22.499Z,11.50
2019-05-01T01:53:49.397Z,11.30
2019-05-01T01:56:16.047Z,10.67
2019-05-01T01:58:43.228Z,11.60
2019-05-01T02:01:28.621Z,10.67
2019-05-01T02:04:00.815Z,10.53
2019-05-01T02:06:27.516Z,10.83
2019-05-01T02:08:56.565Z,11.43
2019-05-01T02:11:23.010Z,10.67
2019-05-01T02:13:49.745Z,11.80
2019-05-01T02:16:16.475Z,11.47
2019-05-01T02:18:43.558Z,11.47
2019-05-01T02:21:10.819Z,10.80
2019-05-01T02:23:37.561Z,11.23
2019-05-01T02:26:05.207Z,11.17
2019-05-01T02:28:42.231Z,10.77
2019-05-01T02:31:27.884Z,11.60
2019-05-01T02:33:47.939Z,11.07
2019-05-01T02:36:14.603Z,12.20
2019-05-01T02:38:41.433Z,11.90
2019-05-01T02:41:08.356Z,11.63
2019-05-01T02:43:35.426Z,11.93
2019-05-01T02:46:02.189Z,10.93
2019-05-01T02:48:28.778Z,11.30
2019-05-01T02:50:55.496Z,12.47
2019-05-01T02:53:22.189Z,11.93
2019-05-01T02:56:08.585Z,12.17
2019-05-01T02:58:35.223Z,12.10
2019-05-01T03:01:02.203Z,12.87
2019-05-01T03:03:28.942Z,12.87
2019-05-01T03:05:55.579Z,12.17
2019-05-01T03:08:22.295Z,11.47
2019-05-01T03:10:49.086Z,13.77
2019-05-01T03:13:15.668Z,11.97
2019-05-01T03:15:42.388Z,13.50
2019-05-01T03:18:40.878Z,11.33
2019-05-01T03:21:19.437Z,13.07
2019-05-01T03:23:50.417Z,11.57
2019-05-01T03:26:17.010Z,12.60
2019-05-01T03:28:43.669Z,12.40
2019-05-01T03:31:10.261Z,13.03
2019-05-01T03:33:36.910Z,13.43
2019-05-01T03:36:03.734Z,11.60
2019-05-01T03:38:30.474Z,13.63
2019-05-01T03:40:57.366Z,14.43
2019-05-01T03:43:24.150Z,14.33
2019-05-01T03:45:50.907Z,13.17
2019-05-01T03:48:17.844Z,12.80
2019-05-01T03:50:46.897Z,13.37
2019-05-01T03:53:12.809Z,13.50
2019-05-01T03:55:39.615Z,14.50
2019-05-01T03:58:06.406Z,12.47
2019-05-01T04:00:51.716Z,13.47
2019-05-01T04:03:34.960Z,14.70
2019-05-01T04:06:01.591Z,13.47
2019-05-01T04:08:28.212Z,13.47
2019-05-01T04:10:55.782Z,14.00
2019-05-01T04:13:22.663Z,13.60
2019-05-01T04:15:49.577Z,13.00
2019-05-01T04:18:16.427Z,13.80
2019-05-01T04:20:43.052Z,13.00
2019-05-01T04:23:09.731Z,13.60
2019-05-01T04:25:36.538Z,12.63
2019-05-01T04:28:22.769Z,13.40
2019-05-01T04:31:05.899Z,15.30
2019-05-01T04:33:34.618Z,13.47
2019-05-01T04:36:06.770Z,13.67
2019-05-01T04:38:33.562Z,14.33
2019-05-01T04:41:00.417Z,14.13
2019-05-01T04:43:27.419Z,14.47
2019-05-01T04:45:54.319Z,15.43
2019-05-01T04:48:20.931Z,14.70
2019-05-01T04:50:47.618Z,15.03
2019-05-01T04:53:14.319Z,14.03
2019-05-01T04:55:41.249Z,13.90
2019-05-01T04:58:07.989Z,14.07
2019-05-01T05:00:34.695Z,14.43
2019-05-01T05:03:12.793Z,13.57
2019-05-01T05:05:39.590Z,15.63
2019-05-01T05:08:06.342Z,15.00
2019-05-01T05:10:33.351Z,15.57
2019-05-01T05:13:09.585Z,14.60
2019-05-01T05:15:54.903Z,14.87
2019-05-01T05:18:22.221Z,15.77
2019-05-01T05:20:49.017Z,15.17
2019-05-01T05:23:15.978Z,14.83
2019-05-01T05:25:42.850Z,16.03
2019-05-01T05:28:09.811Z,14.90
2019-05-01T05:30:36.648Z,14.43
2019-05-01T05:33:03.710Z,16.43
2019-05-01T05:35:31.262Z,14.80
2019-05-01T05:38:29.514Z,15.33
2019-05-01T05:40:56.844Z,14.03
2019-05-01T05:43:24.008Z,15.17
2019-05-01T05:45:50.793Z,15.53
2019-05-01T05:48:17.976Z,15.30
2019-05-01T05:51:03.999Z,15.27
2019-05-01T05:53:36.044Z,15.03
2019-05-01T05:56:05.280Z,15.97
2019-05-01T05:58:42.468Z,15.60
2019-05-01T06:01:29.447Z,15.30
2019-05-01T06:04:07.703Z,16.47
2019-05-01T06:06:54.744Z,15.07
2019-05-01T06:09:23.506Z,14.93
2019-05-01T06:12:15.869Z,15.37
2019-05-01T06:15:11.273Z,15.07
2019-05-01T06:18:06.558Z,15.57
2019-05-01T06:20:56.967Z,14.70
2019-05-01T06:23:34.158Z,15.67
2019-05-01T06:26:19.807Z,15.33
2019-05-01T06:28:46.731Z,15.80
2019-05-01T06:31:23.050Z,17.20
2019-05-01T06:33:48.595Z,15.83
2019-05-01T06:36:15.918Z,16.13
2019-05-01T06:38:42.677Z,16.47
2019-05-01T06:41:09.261Z,14.87
2019-05-01T06:44:02.244Z,15.73
2019-05-01T06:46:46.561Z,15.07
2019-05-01T06:49:31.881Z,14.47
2019-05-01T06:51:59.104Z,14.03
2019-05-01T06:54:25.783Z,14.10
2019-05-01T06:56:52.779Z,15.77
2019-05-01T06:59:19.570Z,16.57
2019-05-01T07:01:46.231Z,16.47
2019-05-01T07:04:14.238Z,16.53
2019-05-01T07:06:41.025Z,16.13
2019-05-01T07:09:11.795Z,15.63
2019-05-01T07:11:37.022Z,15.33
2019-05-01T07:14:03.980Z,16.87
2019-05-01T07:16:33.081Z,17.00
2019-05-01T07:19:05.770Z,15.30
2019-05-01T07:21:32.557Z,15.30
2019-05-01T07:24:05.160Z,15.73
2019-05-01T07:26:32.233Z,15.90
2019-05-01T07:29:06.093Z,16.73
2019-05-01T07:31:32.606Z,16.13
2019-05-01T07:33:59.418Z,16.77
2019-05-01T07:36:26.218Z,16.77
2019-05-01T07:38:53.013Z,16.90
2019-05-01T07:41:19.861Z,16.40
2019-05-01T07:44:11.828Z,15.73
2019-05-01T07:49:18.865Z,15.83
2019-05-01T07:51:52.748Z,16.20
2019-05-01T07:54:19.492Z,16.57
2019-05-01T07:56:46.228Z,15.80
2019-05-01T07:59:13.268Z,16.03
2019-05-01T08:01:57.147Z,16.20
2019-05-01T08:04:35.962Z,17.13
2019-05-01T08:06:57.009Z,17.83
2019-05-01T08:09:21.342Z,16.77
2019-05-01T08:11:48.126Z,17.20
2019-05-01T08:14:16.450Z,17.57
2019-05-01T08:16:43.787Z,17.60
2019-05-01T08:19:34.854Z,17.43
2019-05-01T08:22:13.859Z,18.10
2019-05-01T08:24:40.510Z,17.37
2019-05-01T08:27:10.391Z,17.20
2019-05-01T08:29:55.402Z,19.07
2019-05-01T08:32:39.158Z,17.97
2019-05-01T08:35:08.364Z,17.67
2019-05-01T08:37:35.103Z,16.87
2019-05-01T08:40:01.784Z,17.63
2019-05-01T08:42:29.251Z,18.40
2019-05-01T08:45:18.501Z,17.67
2019-05-01T08:47:48.658Z,17.87
2019-05-01T08:50:19.908Z,18.20
2019-05-01T08:52:47.393Z,17.87
2019-05-01T08:55:15.335Z,18.97
2019-05-01T08:57:42.135Z,18.07
2019-05-01T09:00:08.965Z,18.33
2019-05-01T09:02:36.663Z,17.70
2019-05-01T09:05:07.088Z,18.43
2019-05-01T09:07:33.373Z,18.10
2019-05-01T09:10:00.383Z,19.00
2019-05-01T09:12:27.173Z,17.33
2019-05-01T09:14:53.891Z,18.37
2019-05-01T09:17:20.626Z,18.70
2019-05-01T09:19:47.336Z,18.17
2019-05-01T09:22:14.019Z,17.60
2019-05-01T09:24:41.498Z,17.17
2019-05-01T09:27:24.169Z,17.50
2019-05-01T09:29:52.877Z,20.23
2019-05-01T09:32:19.549Z,17.53
2019-05-01T09:34:46.559Z,19.33
2019-05-01T09:37:13.401Z,17.57
2019-05-01T09:39:40.520Z,17.10
2019-05-01T09:42:07.866Z,17.20
2019-05-01T09:44:34.612Z,17.90
2019-05-01T09:47:01.374Z,17.90
2019-05-01T09:49:28.039Z,16.43
2019-05-01T09:52:18.985Z,17.13
2019-05-01T09:54:55.958Z,17.83
2019-05-01T09:57:22.693Z,15.97
2019-05-01T09:59:49.606Z,17.30
2019-05-01T10:02:16.625Z,17.37
2019-05-01T10:04:43.782Z,16.50
2019-05-01T10:07:10.746Z,17.80
2019-05-01T10:09:37.568Z,16.50
2019-05-01T10:12:04.691Z,15.73
2019-05-01T10:14:35.822Z,16.27
2019-05-01T10:16:59.933Z,15.53
2019-05-01T10:19:27.016Z,15.53
2019-05-01T10:21:57.913Z,16.97
2019-05-01T10:24:22.570Z,16.07
2019-05-01T10:26:55.050Z,15.60
2019-05-01T10:29:38.304Z,16.80
2019-05-01T10:32:21.687Z,15.30
2019-05-01T10:35:19.291Z,16.63
2019-05-01T10:37:44.193Z,18.10
2019-05-01T10:40:11.338Z,16.80
2019-05-01T10:42:40.934Z,15.87
2019-05-01T10:45:06.742Z,15.63
2019-05-01T10:47:33.451Z,16.13
2019-05-01T10:50:00.286Z,16.80
2019-05-01T10:52:26.871Z,15.87
2019-05-01T10:54:53.643Z,16.63
2019-05-01T10:57:20.380Z,16.13
2019-05-01T10:59:47.232Z,17.07
2019-05-01T11:02:15.867Z,15.53
2019-05-01T11:04:42.837Z,16.13
2019-05-01T11:07:09.824Z,16.70
2019-05-01T11:09:36.445Z,16.50
2019-05-01T11:12:03.597Z,17.40
2019-05-01T11:14:30.212Z,16.13
2019-05-01T11:16:57.294Z,17.20
2019-05-01T11:19:23.928Z,16.07
2019-05-01T11:21:50.663Z,14.87
2019-05-01T11:24:17.749Z,15.67
2019-05-01T11:26:44.376Z,16.73
2019-05-01T11:29:11.177Z,15.90
2019-05-01T11:31:53.987Z,16.07
2019-05-01T11:34:55.639Z,15.13
2019-05-01T11:37:47.929Z,15.87
2019-05-01T11:40:20.369Z,15.93
2019-05-01T11:42:47.037Z,14.90
2019-05-01T11:45:13.898Z,15.27
2019-05-01T11:47:40.740Z,15.97
2019-05-01T11:50:07.490Z,15.67
2019-05-01T11:52:34.623Z,15.57
2019-05-01T11:55:01.396Z,14.67
2019-05-01T11:57:28.093Z,16.30
2019-05-01T11:59:54.836Z,16.07
2019-05-01T12:02:21.608Z,14.97
2019-05-01T12:04:48.658Z,15.20
2019-05-01T12:07:15.912Z,15.83
2019-05-01T12:09:42.657Z,14.90
2019-05-01T12:12:12.750Z,14.33
2019-05-01T12:14:39.583Z,15.33
2019-05-01T12:17:12.892Z,14.57
2019-05-01T12:19:39.635Z,14.77
2019-05-01T12:22:06.393Z,14.33
2019-05-01T12:24:33.588Z,14.10
2019-05-01T12:27:00.649Z,14.87
2019-05-01T12:29:27.311Z,13.30
2019-05-01T12:31:54.174Z,13.40
2019-05-01T12:34:20.952Z,14.13
2019-05-01T12:36:48.316Z,14.27
2019-05-01T12:39:16.198Z,14.57
2019-05-01T12:41:48.915Z,14.50
2019-05-01T12:44:15.681Z,14.00
2019-05-01T12:46:55.040Z,13.73
2019-05-01T12:49:22.399Z,13.73
2019-05-01T12:51:51.761Z,14.13
2019-05-01T12:54:37.956Z,13.40
2019-05-01T12:57:05.424Z,13.20
2019-05-01T12:59:32.192Z,12.73
2019-05-01T13:01:58.839Z,13.03
2019-05-01T13:04:25.730Z,12.27
2019-05-01T13:06:53.018Z,12.40
2019-05-01T13:09:19.939Z,12.83
2019-05-01T13:11:47.010Z,13.00
2019-05-01T13:14:14.225Z,13.57
2019-05-01T13:16:41.052Z,12.67
2019-05-01T13:19:08.276Z,12.80
2019-05-01T13:21:35.023Z,12.83
2019-05-01T13:24:01.706Z,12.93
2019-05-01T13:26:42.961Z,11.90
2019-05-01T13:29:33.165Z,12.53
2019-05-01T13:32:04.601Z,12.93
2019-05-01T13:34:31.901Z,12.43
2019-05-01T13:37:03.048Z,12.60
2019-05-01T13:39:27.362Z,12.17
2019-05-01T13:41:54.553Z,13.10
2019-05-01T13:44:21.345Z,12.40
2019-05-01T13:46:48.124Z,12.93
2019-05-01T13:49:14.842Z,12.53
2019-05-01T13:51:41.546Z,12.03
2019-05-01T13:54:09.254Z,12.63
2019-05-01T13:56:36.058Z,11.90
2019-05-01T13:59:03.719Z,12.60
2019-05-01T14:01:30.452Z,12.03
2019-05-01T14:03:57.493Z,12.13
2019-05-01T14:06:24.347Z,12.00
2019-05-01T14:08:51.609Z,11.80
2019-05-01T14:11:18.406Z,11.97
2019-05-01T14:13:45.298Z,12.07
2019-05-01T14:16:14.415Z,12.57
2019-05-01T14:18:40.998Z,12.07
2019-05-01T14:21:25.790Z,12.43
2019-05-01T14:24:10.900Z,12.40
2019-05-01T14:26:37.935Z,12.20
2019-05-01T14:29:04.702Z,11.33
2019-05-01T14:31:31.619Z,12.30
2019-05-01T14:33:58.518Z,12.00
2019-05-01T14:36:25.356Z,12.80
2019-05-01T14:38:52.593Z,12.53
2019-05-01T14:41:19.291Z,12.67
2019-05-01T14:43:46.016Z,13.50
2019-05-01T14:46:12.739Z,12.50
2019-05-01T14:48:39.796Z,12.00
2019-05-01T14:51:06.645Z,13.30
2019-05-01T14:53:33.463Z,12.60
2019-05-01T14:56:00.231Z,11.97
2019-05-01T14:58:27.520Z,12.78
2019-05-01T15:00:54.356Z,11.90
2019-05-01T15:03:21.492Z,13.63
2019-05-01T15:05:49.213Z,13.23
2019-05-01T15:08:17.042Z,12.43
2019-05-01T15:10:44.327Z,12.47
2019-05-01T15:13:20.913Z,11.90
2019-05-01T15:15:59.751Z,12.30
2019-05-01T15:18:44.534Z,12.80
2019-05-01T15:21:11.719Z,11.73
2019-05-01T15:23:38.989Z,12.87
2019-05-01T15:26:05.847Z,12.80
2019-05-01T15:28:32.575Z,13.27
2019-05-01T15:30:59.308Z,13.83
2019-05-01T15:33:26.118Z,13.20
2019-05-01T15:35:52.914Z,12.03
2019-05-01T15:38:20.555Z,12.63
2019-05-01T15:41:03.090Z,13.00
2019-05-01T15:43:31.351Z,13.03
2019-05-01T15:45:58.146Z,12.40
2019-05-01T15:48:24.962Z,12.90
2019-05-01T15:50:51.903Z,14.10
2019-05-01T15:53:18.778Z,12.63
2019-05-01T15:55:46.633Z,13.30
2019-05-01T15:58:13.270Z,13.20
2019-05-01T16:00:40.154Z,13.43
2019-05-01T16:03:07.030Z,11.93
2019-05-01T16:05:33.720Z,12.50
2019-05-01T16:08:09.455Z,13.33
2019-05-01T16:10:34.341Z,13.30
2019-05-01T16:13:02.064Z,12.35
2019-05-01T16:15:35.122Z,13.10
2019-05-01T16:18:01.794Z,12.77
2019-05-01T16:20:28.356Z,13.80
2019-05-01T16:22:54.965Z,14.13
2019-05-01T16:25:21.713Z,13.97
2019-05-01T16:27:48.712Z,13.17
2019-05-01T16:30:18.331Z,14.25
2019-05-01T16:32:44.938Z,12.75
2019-05-01T16:35:11.562Z,12.00
2019-05-01T16:37:38.458Z,13.60
2019-05-01T16:40:23.661Z,13.77
2019-05-01T16:42:50.388Z,12.90
2019-05-01T16:45:17.097Z,13.47
2019-05-01T16:47:44.113Z,12.37
2019-05-01T16:50:10.905Z,12.98
2019-05-01T16:52:39.328Z,12.57
2019-05-01T16:55:06.309Z,12.40
2019-05-01T16:57:32.901Z,13.23
2019-05-01T16:59:59.712Z,13.83
2019-05-01T17:02:36.505Z,14.85
2019-05-01T17:05:21.701Z,14.13
2019-05-01T17:08:01.571Z,12.17
2019-05-01T17:10:32.099Z,12.67
2019-05-01T17:12:59.478Z,13.73
2019-05-01T17:15:36.378Z,13.98
2019-05-01T17:18:03.255Z,13.77
2019-05-01T17:20:29.993Z,13.37
2019-05-01T17:22:56.637Z,13.53
2019-05-01T17:25:23.283Z,12.83
2019-05-01T17:27:49.875Z,13.17
2019-05-01T17:30:19.171Z,13.13
2019-05-01T17:32:45.807Z,13.00
2019-05-01T17:35:12.468Z,14.03
2019-05-01T17:37:39.190Z,13.85
2019-05-01T17:40:06.270Z,13.57
2019-05-01T17:42:37.749Z,13.25
2019-05-01T17:45:02.314Z,13.60
2019-05-01T17:47:29.126Z,14.83
2019-05-01T17:49:55.886Z,12.80
2019-05-01T17:52:23.081Z,13.63
2019-05-01T17:54:50.197Z,12.67
2019-05-01T17:57:16.892Z,13.62
2019-05-01T17:59:45.758Z,14.23
2019-05-01T18:02:32.049Z,13.33
2019-05-01T18:05:13.688Z,13.00
2019-05-01T18:07:40.944Z,12.63
2019-05-01T18:10:07.863Z,13.43
2019-05-01T18:12:34.962Z,13.90
2019-05-01T18:15:02.143Z,13.73
2019-05-01T18:17:29.508Z,14.23
2019-05-01T18:19:56.705Z,15.60
2019-05-01T18:22:58.232Z,14.17
2019-05-01T18:25:50.541Z,16.07
2019-05-01T18:28:35.256Z,18.67
2019-05-01T18:31:02.501Z,17.67
2019-05-01T18:33:29.352Z,18.17
2019-05-01T18:35:56.790Z,16.30
2019-05-01T18:38:48.806Z,14.63
2019-05-01T18:41:29.857Z,16.80
2019-05-01T18:43:56.764Z,17.10
2019-05-01T18:46:23.738Z,16.70
2019-05-01T18:48:50.437Z,17.67
2019-05-01T18:51:17.609Z,17.40
2019-05-01T18:53:45.085Z,16.07
2019-05-01T18:56:12.196Z,14.47
2019-05-01T18:58:38.881Z,16.50
2019-05-01T19:01:09.547Z,16.03
2019-05-01T19:03:37.192Z,15.63
2019-05-01T19:06:04.340Z,16.17
2019-05-01T19:08:31.929Z,16.67
2019-05-01T19:11:11.750Z,16.17
2019-05-01T19:13:27.895Z,15.17
2019-05-01T19:15:54.815Z,15.93
2019-05-01T19:18:21.560Z,16.07
2019-05-01T19:20:58.796Z,16.73
2019-05-01T19:23:16.897Z,15.80
2019-05-01T19:25:43.700Z,15.77
2019-05-01T19:28:11.928Z,16.33
2019-05-01T19:30:38.613Z,15.90
2019-05-01T19:33:05.718Z,17.23
2019-05-01T19:35:34.237Z,15.77
2019-05-01T19:38:01.206Z,15.93
2019-05-01T19:40:30.825Z,15.53
2019-05-01T19:42:58.005Z,15.87
2019-05-01T19:45:25.010Z,15.77
2019-05-01T19:47:52.067Z,15.80
2019-05-01T19:50:18.855Z,15.37
2019-05-01T19:52:45.965Z,16.33
2019-05-01T19:55:12.680Z,15.07
2019-05-01T19:57:39.453Z,15.03
2019-05-01T20:00:06.857Z,15.87
2019-05-01T20:02:33.650Z,14.77
2019-05-01T20:05:00.454Z,14.80
2019-05-01T20:07:27.242Z,14.87
2019-05-01T20:09:57.134Z,14.80
2019-05-01T20:12:22.496Z,13.03
2019-05-01T20:14:49.326Z,13.97
2019-05-01T20:17:15.963Z,15.43
2019-05-01T20:19:42.557Z,14.97
2019-05-01T20:22:09.843Z,14.27
2019-05-01T20:24:39.910Z,15.73
2019-05-01T20:27:06.321Z,15.20
2019-05-01T20:29:33.276Z,15.10
2019-05-01T20:32:00.512Z,14.60
2019-05-01T20:34:27.241Z,14.17
2019-05-01T20:36:53.880Z,14.03
2019-05-01T20:39:23.645Z,14.63
2019-05-01T20:41:49.614Z,15.03
2019-05-01T20:44:23.199Z,14.97
2019-05-01T20:46:47.488Z,14.37
2019-05-01T20:49:17.363Z,13.87
2019-05-01T20:51:44.054Z,14.60
2019-05-01T20:54:10.870Z,14.43
2019-05-01T20:56:49.215Z,13.97
2019-05-01T20:59:15.868Z,13.87
2019-05-01T21:01:42.485Z,13.67
2019-05-01T21:04:22.606Z,14.87
2019-05-01T21:07:08.727Z,15.67
2019-05-01T21:09:47.266Z,14.40
2019-05-01T21:12:05.816Z,13.30
2019-05-01T21:14:32.565Z,14.17
2019-05-01T21:16:59.269Z,13.40
2019-05-01T21:19:28.740Z,13.83
2019-05-01T21:21:54.551Z,14.47
2019-05-01T21:24:21.610Z,14.70
2019-05-01T21:26:48.452Z,14.47
2019-05-01T21:29:15.333Z,13.63
2019-05-01T21:31:43.906Z,14.13
2019-05-01T21:34:10.717Z,13.90
2019-05-01T21:36:37.437Z,13.97
2019-05-01T21:39:04.899Z,14.87
2019-05-01T21:41:32.890Z,13.03
2019-05-01T21:43:59.535Z,13.50
2019-05-01T21:46:26.229Z,12.60
2019-05-01T21:48:53.566Z,13.07
2019-05-01T21:51:22.616Z,13.13
2019-05-01T21:53:49.117Z,13.93
2019-05-01T21:56:15.748Z,13.77
2019-05-01T21:58:42.403Z,13.70
2019-05-01T22:01:09.069Z,13.90
2019-05-01T22:03:36.053Z,14.40
2019-05-01T22:06:02.809Z,12.80
2019-05-01T22:08:29.588Z,14.10
2019-05-01T22:10:57.553Z,13.87
2019-05-01T22:13:25.544Z,13.40
2019-05-01T22:15:57.360Z,13.17
2019-05-01T22:18:31.781Z,14.33
2019-05-01T22:21:20.954Z,14.07
2019-05-01T22:24:16.423Z,12.97
2019-05-01T22:26:46.372Z,14.43
2019-05-01T22:29:14.862Z,13.53
2019-05-01T22:31:57.429Z,13.70
2019-05-01T22:34:32.668Z,13.97
2019-05-01T22:36:59.404Z,14.17
2019-05-01T22:39:28.862Z,14.43
2019-05-01T22:41:56.659Z,14.17
2019-05-01T22:44:23.434Z,13.17
2019-05-01T22:46:50.166Z,13.63
2019-05-01T22:49:16.775Z,12.83
2019-05-01T22:51:43.462Z,14.47
2019-05-01T22:54:10.365Z,12.80
2019-05-01T22:56:37.132Z,14.27
2019-05-01T22:59:04.053Z,13.43
2019-05-01T23:01:30.930Z,13.00
2019-05-01T23:04:00.643Z,13.23
2019-05-01T23:06:27.389Z,13.47
2019-05-01T23:08:54.509Z,12.73
2019-05-01T23:11:22.569Z,14.33
2019-05-01T23:13:49.596Z,12.83
2019-05-01T23:16:18.304Z,13.77
2019-05-01T23:18:47.122Z,12.90
2019-05-01T23:21:14.540Z,13.13
2019-05-01T23:23:42.123Z,13.03
2019-05-01T23:26:11.651Z,14.23
2019-05-01T23:28:39.887Z,12.67
2019-05-01T23:31:06.140Z,12.80
2019-05-01T23:33:33.198Z,13.20
2019-05-01T23:35:59.798Z,12.50
2019-05-01T23:38:26.446Z,13.77
2019-05-01T23:40:53.273Z,12.17
2019-05-01T23:43:23.009Z,12.03
2019-05-01T23:45:48.388Z,13.03
2019-05-01T23:48:15.140Z,11.57
2019-05-01T23:50:41.812Z,10.67
2019-05-01T23:53:09.033Z,11.57
2019-05-01T23:55:37.347Z,12.23
2019-05-01T23:58:04.066Z,12.13
